sensor_id;sensor_type;location;lat;lon;timestamp;pressure;altitude;pressure_sealevel;temperature;humidity
73692;BME280;61996;49.910;35.562;2022-12-29T00:02:02;100102.28;;;20.43;40.09
73692;BME280;61996;49.910;35.562;2022-12-29T00:05:05;100104.53;;;20.38;40.10
73692;BME280;61996;49.910;35.562;2022-12-29T00:08:08;100107.47;;;20.35;40.11
73692;BME280;61996;49.910;35.562;2022-12-29T00:11:13;100108.75;;;20.31;40.16
73692;BME280;61996;49.910;35.562;2022-12-29T00:14:16;100106.91;;;20.31;40.14
73692;BME280;61996;49.910;35.562;2022-12-29T00:17:37;100107.31;;;20.26;40.25
73692;BME280;61996;49.910;35.562;2022-12-29T00:20:39;100112.22;;;20.21;40.26
73692;BME280;61996;49.910;35.562;2022-12-29T00:24:09;100113.19;;;20.20;40.26
73692;BME280;61996;49.910;35.562;2022-12-29T00:27:33;100114.44;;;20.16;40.35
73692;BME280;61996;49.910;35.562;2022-12-29T00:30:53;100106.84;;;20.12;40.37
73692;BME280;61996;49.910;35.562;2022-12-29T00:34:18;100120.91;;;20.14;40.46
73692;BME280;61996;49.910;35.562;2022-12-29T00:37:39;100103.59;;;20.08;40.41
73692;BME280;61996;49.910;35.562;2022-12-29T00:41:01;100105.69;;;20.05;40.43
73692;BME280;61996;49.910;35.562;2022-12-29T00:44:23;100102.28;;;20.03;40.70
73692;BME280;61996;49.910;35.562;2022-12-29T00:47:26;100102.28;;;20.03;40.62
73692;BME280;61996;49.910;35.562;2022-12-29T00:50:28;100098.38;;;19.97;40.70
73692;BME280;61996;49.910;35.562;2022-12-29T00:53:30;100109.28;;;19.94;40.70
73692;BME280;61996;49.910;35.562;2022-12-29T00:56:33;100105.78;;;19.93;40.61
73692;BME280;61996;49.910;35.562;2022-12-29T00:59:37;100109.00;;;19.87;40.72
73692;BME280;61996;49.910;35.562;2022-12-29T01:02:40;100091.59;;;19.93;40.85
73692;BME280;61996;49.910;35.562;2022-12-29T01:05:43;100102.81;;;19.87;40.92
73692;BME280;61996;49.910;35.562;2022-12-29T01:08:46;100101.41;;;19.83;40.74
73692;BME280;61996;49.910;35.562;2022-12-29T01:12:09;100101.66;;;19.80;40.88
73692;BME280;61996;49.910;35.562;2022-12-29T01:15:14;100111.03;;;19.74;40.98
73692;BME280;61996;49.910;35.562;2022-12-29T01:18:18;100102.19;;;19.74;41.02
73692;BME280;61996;49.910;35.562;2022-12-29T01:21:21;100098.81;;;19.71;40.91
73692;BME280;61996;49.910;35.562;2022-12-29T01:24:24;100101.03;;;19.66;41.07
73692;BME280;61996;49.910;35.562;2022-12-29T01:27:27;100111.84;;;19.65;40.97
73692;BME280;61996;49.910;35.562;2022-12-29T01:30:32;100114.66;;;19.63;41.26
73692;BME280;61996;49.910;35.562;2022-12-29T01:33:35;100112.69;;;19.65;41.07
73692;BME280;61996;49.910;35.562;2022-12-29T01:36:37;100106.03;;;19.60;41.04
73692;BME280;61996;49.910;35.562;2022-12-29T01:39:40;100109.09;;;19.55;41.12
73692;BME280;61996;49.910;35.562;2022-12-29T01:42:43;100109.34;;;19.52;41.21
73692;BME280;61996;49.910;35.562;2022-12-29T01:45:48;100106.94;;;19.49;41.33
73692;BME280;61996;49.910;35.562;2022-12-29T01:48:53;100108.34;;;19.53;41.27
73692;BME280;61996;49.910;35.562;2022-12-29T01:51:58;100107.78;;;19.50;41.09
73692;BME280;61996;49.910;35.562;2022-12-29T01:55:03;100112.28;;;19.49;41.23
73692;BME280;61996;49.910;35.562;2022-12-29T01:58:07;100102.69;;;19.47;41.12
73692;BME280;61996;49.910;35.562;2022-12-29T02:01:13;100108.19;;;19.45;41.22
73692;BME280;61996;49.910;35.562;2022-12-29T02:04:18;100096.53;;;19.46;41.19
73692;BME280;61996;49.910;35.562;2022-12-29T02:07:22;100096.94;;;19.41;41.10
73692;BME280;61996;49.910;35.562;2022-12-29T02:10:26;100110.97;;;19.43;41.23
73692;BME280;61996;49.910;35.562;2022-12-29T02:13:30;100106.50;;;19.44;41.05
73692;BME280;61996;49.910;35.562;2022-12-29T02:16:39;100101.84;;;19.46;41.00
73692;BME280;61996;49.910;35.562;2022-12-29T02:23:13;100102.13;;;19.43;41.12
73692;BME280;61996;49.910;35.562;2022-12-29T02:26:26;100098.88;;;19.39;41.15
73692;BME280;61996;49.910;35.562;2022-12-29T02:29:45;100103.34;;;19.39;41.12
73692;BME280;61996;49.910;35.562;2022-12-29T02:32:58;100102.78;;;19.35;41.32
73692;BME280;61996;49.910;35.562;2022-12-29T02:36:06;100104.47;;;19.36;41.04
73692;BME280;61996;49.910;35.562;2022-12-29T02:39:12;100107.53;;;19.32;41.14
73692;BME280;61996;49.910;35.562;2022-12-29T02:42:20;100103.31;;;19.29;41.14
73692;BME280;61996;49.910;35.562;2022-12-29T02:45:26;100105.00;;;19.30;41.14
73692;BME280;61996;49.910;35.562;2022-12-29T02:48:36;100100.50;;;19.31;41.19
73692;BME280;61996;49.910;35.562;2022-12-29T02:51:45;100103.31;;;19.29;41.17
73692;BME280;61996;49.910;35.562;2022-12-29T02:54:52;100107.94;;;19.27;41.12
73692;BME280;61996;49.910;35.562;2022-12-29T02:58:08;100106.34;;;19.25;41.09
73692;BME280;61996;49.910;35.562;2022-12-29T03:01:28;100108.31;;;19.23;41.24
73692;BME280;61996;49.910;35.562;2022-12-29T03:04:35;100108.38;;;19.32;41.04
73692;BME280;61996;49.910;35.562;2022-12-29T03:07:43;100111.25;;;19.40;40.82
73692;BME280;61996;49.910;35.562;2022-12-29T03:10:51;100096.66;;;19.44;40.73
73692;BME280;61996;49.910;35.562;2022-12-29T03:13:59;100100.50;;;19.52;40.55
73692;BME280;61996;49.910;35.562;2022-12-29T03:17:24;100099.09;;;19.68;40.29
73692;BME280;61996;49.910;35.562;2022-12-29T03:20:31;100102.78;;;19.77;40.21
73692;BME280;61996;49.910;35.562;2022-12-29T03:23:37;100107.69;;;19.82;40.09
73692;BME280;61996;49.910;35.562;2022-12-29T03:26:41;100093.69;;;19.89;39.88
73692;BME280;61996;49.910;35.562;2022-12-29T03:29:46;100087.94;;;19.94;39.78
73692;BME280;61996;49.910;35.562;2022-12-29T03:32:54;100089.63;;;19.95;39.85
73692;BME280;61996;49.910;35.562;2022-12-29T03:35:59;100086.41;;;20.01;39.65
73692;BME280;61996;49.910;35.562;2022-12-29T03:39:07;100076.19;;;20.06;39.61
73692;BME280;61996;49.910;35.562;2022-12-29T03:42:13;100070.31;;;20.12;39.32
73692;BME280;61996;49.910;35.562;2022-12-29T03:45:18;100072.16;;;20.21;39.08
73692;BME280;61996;49.910;35.562;2022-12-29T03:48:21;100067.50;;;20.23;39.22
73692;BME280;61996;49.910;35.562;2022-12-29T03:51:25;100063.28;;;20.21;39.79
73692;BME280;61996;49.910;35.562;2022-12-29T03:54:28;100068.09;;;20.17;40.22
73692;BME280;61996;49.910;35.562;2022-12-29T03:57:31;100068.50;;;20.22;39.81
73692;BME280;61996;49.910;35.562;2022-12-29T04:00:33;100064.13;;;20.21;39.90
73692;BME280;61996;49.910;35.562;2022-12-29T04:03:36;100061.22;;;20.24;39.78
73692;BME280;61996;49.910;35.562;2022-12-29T04:06:41;100063.03;;;20.24;39.77
73692;BME280;61996;49.910;35.562;2022-12-29T04:09:43;100062.88;;;20.25;39.77
73692;BME280;61996;49.910;35.562;2022-12-29T04:12:46;100058.00;;;20.31;39.53
73692;BME280;61996;49.910;35.562;2022-12-29T04:15:49;100056.81;;;20.23;39.70
73692;BME280;61996;49.910;35.562;2022-12-29T04:18:52;100056.28;;;20.30;39.56
73692;BME280;61996;49.910;35.562;2022-12-29T04:21:56;100061.06;;;20.36;39.58
73692;BME280;61996;49.910;35.562;2022-12-29T04:24:59;100069.78;;;20.28;39.57
73692;BME280;61996;49.910;35.562;2022-12-29T04:28:02;100076.69;;;20.31;39.60
73692;BME280;61996;49.910;35.562;2022-12-29T04:31:05;100076.41;;;20.34;39.53
73692;BME280;61996;49.910;35.562;2022-12-29T04:34:08;100074.56;;;20.34;39.48
73692;BME280;61996;49.910;35.562;2022-12-29T04:37:12;100072.88;;;20.33;39.59
73692;BME280;61996;49.910;35.562;2022-12-29T04:40:14;100065.41;;;20.37;39.54
73692;BME280;61996;49.910;35.562;2022-12-29T04:43:17;100062.75;;;20.37;39.53
73692;BME280;61996;49.910;35.562;2022-12-29T04:46:21;100058.84;;;20.41;39.42
73692;BME280;61996;49.910;35.562;2022-12-29T04:49:23;100057.69;;;20.43;39.55
73692;BME280;61996;49.910;35.562;2022-12-29T04:52:28;100064.19;;;20.41;39.41
73692;BME280;61996;49.910;35.562;2022-12-29T04:55:31;100062.34;;;20.41;39.36
73692;BME280;61996;49.910;35.562;2022-12-29T04:58:33;100053.50;;;20.41;39.35
73692;BME280;61996;49.910;35.562;2022-12-29T05:01:36;100065.03;;;20.41;39.42
73692;BME280;61996;49.910;35.562;2022-12-29T05:04:39;100065.63;;;20.45;39.43
73692;BME280;61996;49.910;35.562;2022-12-29T05:07:44;100059.16;;;20.47;39.34
73692;BME280;61996;49.910;35.562;2022-12-29T05:10:47;100058.47;;;20.45;39.28
73692;BME280;61996;49.910;35.562;2022-12-29T05:13:53;100066.75;;;20.52;39.15
73692;BME280;61996;49.910;35.562;2022-12-29T05:16:56;100064.34;;;20.49;39.17
73692;BME280;61996;49.910;35.562;2022-12-29T05:19:59;100069.16;;;20.45;39.29
73692;BME280;61996;49.910;35.562;2022-12-29T05:23:03;100066.75;;;20.52;39.15
73692;BME280;61996;49.910;35.562;2022-12-29T05:26:06;100071.53;;;20.48;39.29
73692;BME280;61996;49.910;35.562;2022-12-29T05:29:09;100078.28;;;20.52;39.11
73692;BME280;61996;49.910;35.562;2022-12-29T05:32:12;100078.16;;;20.54;39.07
73692;BME280;61996;49.910;35.562;2022-12-29T05:35:15;100068.44;;;20.53;38.94
73692;BME280;61996;49.910;35.562;2022-12-29T05:38:19;100073.34;;;20.48;39.17
73692;BME280;61996;49.910;35.562;2022-12-29T05:41:22;100085.47;;;20.52;39.08
73692;BME280;61996;49.910;35.562;2022-12-29T05:44:25;100079.53;;;20.48;39.12
73692;BME280;61996;49.910;35.562;2022-12-29T05:47:27;100082.81;;;20.52;39.11
73692;BME280;61996;49.910;35.562;2022-12-29T05:50:30;100086.16;;;20.54;39.40
73692;BME280;61996;49.910;35.562;2022-12-29T05:53:34;100094.31;;;20.52;39.31
73692;BME280;61996;49.910;35.562;2022-12-29T05:56:39;100087.41;;;20.50;39.24
73692;BME280;61996;49.910;35.562;2022-12-29T05:59:41;100078.59;;;20.59;39.15
73692;BME280;61996;49.910;35.562;2022-12-29T06:02:44;100088.44;;;20.59;39.07
73692;BME280;61996;49.910;35.562;2022-12-29T06:05:47;100091.81;;;20.61;39.18
73692;BME280;61996;49.910;35.562;2022-12-29T06:08:51;100101.78;;;20.59;39.11
73692;BME280;61996;49.910;35.562;2022-12-29T06:11:54;100082.22;;;20.58;39.11
73692;BME280;61996;49.910;35.562;2022-12-29T06:14:57;100087.44;;;20.60;39.04
73692;BME280;61996;49.910;35.562;2022-12-29T06:18:00;100093.47;;;20.62;39.12
73692;BME280;61996;49.910;35.562;2022-12-29T06:21:04;100089.97;;;20.61;39.04
73692;BME280;61996;49.910;35.562;2022-12-29T06:24:09;100083.94;;;20.59;39.15
73692;BME280;61996;49.910;35.562;2022-12-29T06:27:12;100089.97;;;20.61;39.17
73692;BME280;61996;49.910;35.562;2022-12-29T06:30:16;100080.81;;;20.64;38.97
73692;BME280;61996;49.910;35.562;2022-12-29T06:33:18;100084.63;;;20.61;39.12
73692;BME280;61996;49.910;35.562;2022-12-29T06:36:22;100094.75;;;20.67;38.97
73692;BME280;61996;49.910;35.562;2022-12-29T06:39:26;100090.13;;;20.69;39.10
73692;BME280;61996;49.910;35.562;2022-12-29T06:42:29;100087.00;;;20.64;39.11
73692;BME280;61996;49.910;35.562;2022-12-29T06:45:31;100081.09;;;20.70;38.97
73692;BME280;61996;49.910;35.562;2022-12-29T06:48:34;100081.41;;;20.67;38.89
73692;BME280;61996;49.910;35.562;2022-12-29T06:51:37;100086.00;;;20.65;39.08
73692;BME280;61996;49.910;35.562;2022-12-29T06:54:41;100081.94;;;20.61;39.33
73692;BME280;61996;49.910;35.562;2022-12-29T06:57:44;100080.69;;;20.56;39.23
73692;BME280;61996;49.910;35.562;2022-12-29T07:04:54;100091.19;;;20.38;39.57
73692;BME280;61996;49.910;35.562;2022-12-29T07:07:56;100088.91;;;20.33;39.73
73692;BME280;61996;49.910;35.562;2022-12-29T07:11:01;100095.63;;;20.27;39.75
73692;BME280;61996;49.910;35.562;2022-12-29T07:14:03;100099.44;;;20.25;39.63
73692;BME280;61996;49.910;35.562;2022-12-29T07:17:06;100091.69;;;20.22;39.67
73692;BME280;61996;49.910;35.562;2022-12-29T07:20:09;100092.81;;;20.19;39.58
73692;BME280;61996;49.910;35.562;2022-12-29T07:23:12;100090.53;;;20.15;39.67
73692;BME280;61996;49.910;35.562;2022-12-29T07:26:16;100098.69;;;20.13;39.56
73692;BME280;61996;49.910;35.562;2022-12-29T07:29:19;100096.41;;;20.09;39.73
73692;BME280;61996;49.910;35.562;2022-12-29T07:32:22;100105.56;;;20.06;39.62
73692;BME280;61996;49.910;35.562;2022-12-29T07:35:25;100100.34;;;20.05;39.59
73692;BME280;61996;49.910;35.562;2022-12-29T07:38:28;100094.44;;;20.01;39.54
73692;BME280;61996;49.910;35.562;2022-12-29T07:41:32;100099.22;;;19.97;39.72
73692;BME280;61996;49.910;35.562;2022-12-29T07:44:36;100109.16;;;19.95;39.77
73692;BME280;61996;49.910;35.562;2022-12-29T07:47:39;100098.75;;;19.92;39.67
73692;BME280;61996;49.910;35.562;2022-12-29T07:50:41;100099.16;;;19.88;39.83
73692;BME280;61996;49.910;35.562;2022-12-29T07:53:44;100098.31;;;19.87;39.77
73692;BME280;61996;49.910;35.562;2022-12-29T07:56:48;100096.06;;;19.83;39.77
73692;BME280;61996;49.910;35.562;2022-12-29T07:59:51;100090.41;;;19.76;39.69
73692;BME280;61996;49.910;35.562;2022-12-29T08:02:54;100085.91;;;19.77;39.66
73692;BME280;61996;49.910;35.562;2022-12-29T08:05:57;100087.16;;;19.73;39.89
73692;BME280;61996;49.910;35.562;2022-12-29T08:08:59;100079.44;;;19.69;39.85
73692;BME280;61996;49.910;35.562;2022-12-29T08:12:14;100072.66;;;19.65;39.89
73692;BME280;61996;49.910;35.562;2022-12-29T08:15:17;100072.78;;;19.64;39.82
73692;BME280;61996;49.910;35.562;2022-12-29T08:18:19;100065.19;;;19.59;39.93
73692;BME280;61996;49.910;35.562;2022-12-29T08:21:22;100070.66;;;19.58;39.91
73692;BME280;61996;49.910;35.562;2022-12-29T08:24:25;100056.34;;;19.59;40.02
73692;BME280;61996;49.910;35.562;2022-12-29T08:27:29;100061.06;;;19.55;39.98
73692;BME280;61996;49.910;35.562;2022-12-29T08:30:32;100051.78;;;19.50;39.93
73692;BME280;61996;49.910;35.562;2022-12-29T08:33:35;100055.44;;;19.49;40.04
73692;BME280;61996;49.910;35.562;2022-12-29T08:36:37;100053.31;;;19.52;39.99
73692;BME280;61996;49.910;35.562;2022-12-29T08:39:40;100051.19;;;19.46;40.03
73692;BME280;61996;49.910;35.562;2022-12-29T08:50:58;100055.63;;;19.36;40.24
73692;BME280;61996;49.910;35.562;2022-12-29T08:54:01;100061.81;;;19.36;40.18
73692;BME280;61996;49.910;35.562;2022-12-29T08:57:04;100064.97;;;19.51;40.06
73692;BME280;61996;49.910;35.562;2022-12-29T09:00:07;100060.28;;;19.64;39.72
73692;BME280;61996;49.910;35.562;2022-12-29T09:03:10;100063.75;;;19.86;39.46
73692;BME280;61996;49.910;35.562;2022-12-29T09:06:15;100059.25;;;19.86;39.49
73692;BME280;61996;49.910;35.562;2022-12-29T09:09:19;100052.69;;;20.00;39.15
73692;BME280;61996;49.910;35.562;2022-12-29T09:12:22;100053.59;;;20.10;39.11
73692;BME280;61996;49.910;35.562;2022-12-29T09:15:25;100058.25;;;20.18;38.82
73692;BME280;61996;49.910;35.562;2022-12-29T09:18:28;100056.13;;;20.12;39.16
73692;BME280;61996;49.910;35.562;2022-12-29T09:21:32;100060.75;;;20.19;38.88
73692;BME280;61996;49.910;35.562;2022-12-29T09:24:35;100056.28;;;20.20;39.06
73692;BME280;61996;49.910;35.562;2022-12-29T09:27:38;100048.56;;;20.26;38.76
73692;BME280;61996;49.910;35.562;2022-12-29T09:30:41;100055.97;;;20.23;39.53
73692;BME280;61996;49.910;35.562;2022-12-29T09:33:43;100054.59;;;20.29;38.54
73692;BME280;61996;49.910;35.562;2022-12-29T09:36:48;100046.56;;;20.29;38.76
73692;BME280;61996;49.910;35.562;2022-12-29T09:39:51;100047.16;;;20.32;40.08
73692;BME280;61996;49.910;35.562;2022-12-29T09:43:03;100050.69;;;20.33;38.82
73692;BME280;61996;49.910;35.562;2022-12-29T09:46:09;100048.44;;;20.38;39.22
73692;BME280;61996;49.910;35.562;2022-12-29T09:49:20;100037.59;;;20.39;39.27
73692;BME280;61996;49.910;35.562;2022-12-29T09:52:29;100039.69;;;20.36;39.47
73692;BME280;61996;49.910;35.562;2022-12-29T09:55:34;100033.25;;;20.38;38.67
73692;BME280;61996;49.910;35.562;2022-12-29T09:58:39;100031.81;;;20.44;39.20
73692;BME280;61996;49.910;35.562;2022-12-29T10:01:45;100019.75;;;20.40;38.71
73692;BME280;61996;49.910;35.562;2022-12-29T10:04:49;100010.22;;;20.47;38.68
73692;BME280;61996;49.910;35.562;2022-12-29T10:07:55;100008.25;;;20.49;39.50
73692;BME280;61996;49.910;35.562;2022-12-29T10:11:05;100004.59;;;20.50;38.54
73692;BME280;61996;49.910;35.562;2022-12-29T10:14:17;99999.41;;;20.48;39.49
73692;BME280;61996;49.910;35.562;2022-12-29T10:17:26;99999.13;;;20.51;39.19
73692;BME280;61996;49.910;35.562;2022-12-29T10:20:33;99983.22;;;20.50;39.10
73692;BME280;61996;49.910;35.562;2022-12-29T10:23:42;99993.63;;;20.53;39.48
73692;BME280;61996;49.910;35.562;2022-12-29T10:26:47;99993.91;;;20.50;39.44
73692;BME280;61996;49.910;35.562;2022-12-29T10:29:52;99987.44;;;20.52;39.23
73692;BME280;61996;49.910;35.562;2022-12-29T10:32:56;99984.91;;;20.61;38.66
73692;BME280;61996;49.910;35.562;2022-12-29T10:36:01;99988.56;;;20.60;39.00
73692;BME280;61996;49.910;35.562;2022-12-29T10:39:18;99995.03;;;20.57;39.09
73692;BME280;61996;49.910;35.562;2022-12-29T10:42:25;99997.59;;;20.59;39.18
73692;BME280;61996;49.910;35.562;2022-12-29T10:45:29;99992.50;;;20.56;39.21
73692;BME280;61996;49.910;35.562;2022-12-29T10:48:34;99996.00;;;20.56;39.23
73692;BME280;61996;49.910;35.562;2022-12-29T10:51:38;99983.22;;;20.69;39.00
73692;BME280;61996;49.910;35.562;2022-12-29T10:54:45;99985.47;;;20.64;39.11
73692;BME280;61996;49.910;35.562;2022-12-29T10:57:49;99979.69;;;20.69;39.02
73692;BME280;61996;49.910;35.562;2022-12-29T11:00:52;99975.03;;;20.71;39.02
73692;BME280;61996;49.910;35.562;2022-12-29T11:04:00;99977.16;;;20.77;38.53
73692;BME280;61996;49.910;35.562;2022-12-29T11:07:05;99974.66;;;20.66;38.87
73692;BME280;61996;49.910;35.562;2022-12-29T11:10:19;99962.53;;;20.62;38.90
73692;BME280;61996;49.910;35.562;2022-12-29T11:13:24;99963.53;;;20.51;38.60
73692;BME280;61996;49.910;35.562;2022-12-29T11:16:31;99960.47;;;20.46;38.96
73692;BME280;61996;49.910;35.562;2022-12-29T11:19:35;99960.16;;;20.39;39.79
73692;BME280;61996;49.910;35.562;2022-12-29T11:22:43;99956.06;;;20.35;39.65
73692;BME280;61996;49.910;35.562;2022-12-29T11:25:48;99960.41;;;20.26;40.02
73692;BME280;61996;49.910;35.562;2022-12-29T11:29:17;99953.09;;;20.19;40.27
73692;BME280;61996;49.910;35.562;2022-12-29T11:32:23;99953.50;;;20.14;40.09
73692;BME280;61996;49.910;35.562;2022-12-29T11:35:30;99947.47;;;20.12;39.57
73692;BME280;61996;49.910;35.562;2022-12-29T11:38:34;99960.53;;;20.06;40.48
73692;BME280;61996;49.910;35.562;2022-12-29T11:41:40;99959.25;;;20.00;39.65
73692;BME280;61996;49.910;35.562;2022-12-29T11:44:43;99958.28;;;20.01;39.74
73692;BME280;61996;49.910;35.562;2022-12-29T11:47:47;99950.56;;;19.98;40.51
73692;BME280;61996;49.910;35.562;2022-12-29T11:50:52;99952.53;;;19.96;39.91
73692;BME280;61996;49.910;35.562;2022-12-29T11:53:56;99948.28;;;19.93;40.25
73692;BME280;61996;49.910;35.562;2022-12-29T11:57:09;99938.06;;;19.89;39.54
73692;BME280;61996;49.910;35.562;2022-12-29T12:00:14;99942.41;;;19.99;39.88
73692;BME280;61996;49.910;35.562;2022-12-29T12:03:18;99935.38;;;19.89;39.91
73692;BME280;61996;49.910;35.562;2022-12-29T12:06:23;99941.28;;;19.92;39.46
73692;BME280;61996;49.910;35.562;2022-12-29T12:09:28;99938.16;;;19.87;40.29
73692;BME280;61996;49.910;35.562;2022-12-29T12:12:35;99926.78;;;19.76;40.10
73692;BME280;61996;49.910;35.562;2022-12-29T12:15:41;99935.34;;;19.69;39.88
73692;BME280;61996;49.910;35.562;2022-12-29T12:18:51;99935.47;;;19.68;39.92
73692;BME280;61996;49.910;35.562;2022-12-29T12:21:56;99932.22;;;19.64;40.18
73692;BME280;61996;49.910;35.562;2022-12-29T12:25:03;99938.56;;;19.63;39.90
73692;BME280;61996;49.910;35.562;2022-12-29T12:28:15;99937.84;;;19.61;39.91
73692;BME280;61996;49.910;35.562;2022-12-29T12:34:42;99925.75;;;19.57;39.92
73692;BME280;61996;49.910;35.562;2022-12-29T12:37:52;99931.44;;;19.53;39.94
73692;BME280;61996;49.910;35.562;2022-12-29T12:41:00;99931.34;;;19.54;39.81
73692;BME280;61996;49.910;35.562;2022-12-29T12:44:10;99933.41;;;19.51;39.93
73692;BME280;61996;49.910;35.562;2022-12-29T12:47:18;99931.88;;;19.48;39.99
73692;BME280;61996;49.910;35.562;2022-12-29T12:50:31;99941.13;;;19.44;39.97
73692;BME280;61996;49.910;35.562;2022-12-29T12:53:40;99940.28;;;19.43;40.05
73692;BME280;61996;49.910;35.562;2022-12-29T12:56:52;99930.72;;;19.41;39.94
73692;BME280;61996;49.910;35.562;2022-12-29T13:00:01;99943.47;;;19.37;40.14
73692;BME280;61996;49.910;35.562;2022-12-29T13:03:09;99932.81;;;19.37;40.07
73692;BME280;61996;49.910;35.562;2022-12-29T13:06:16;99931.66;;;19.30;40.21
73692;BME280;61996;49.910;35.562;2022-12-29T13:12:44;99929.13;;;19.29;40.34
73692;BME280;61996;49.910;35.562;2022-12-29T13:15:53;99924.06;;;19.26;40.31
73692;BME280;61996;49.910;35.562;2022-12-29T13:19:02;99928.00;;;19.22;40.22
73692;BME280;61996;49.910;35.562;2022-12-29T13:22:09;99911.28;;;19.20;40.31
73692;BME280;61996;49.910;35.562;2022-12-29T13:25:18;99906.06;;;19.18;40.12
73692;BME280;61996;49.910;35.562;2022-12-29T13:28:25;99912.38;;;19.17;40.17
73692;BME280;61996;49.910;35.562;2022-12-29T13:31:33;99906.50;;;19.13;40.19
73692;BME280;61996;49.910;35.562;2022-12-29T13:34:42;99911.94;;;19.12;40.37
73692;BME280;61996;49.910;35.562;2022-12-29T13:37:51;99910.25;;;19.11;40.31
73692;BME280;61996;49.910;35.562;2022-12-29T13:40:56;99907.16;;;19.06;40.21
73692;BME280;61996;49.910;35.562;2022-12-29T13:44:02;99895.63;;;19.05;40.28
73692;BME280;61996;49.910;35.562;2022-12-29T13:47:11;99892.25;;;19.03;40.22
73692;BME280;61996;49.910;35.562;2022-12-29T13:50:18;99904.59;;;19.04;40.28
73692;BME280;61996;49.910;35.562;2022-12-29T13:53:24;99899.56;;;19.01;40.29
73692;BME280;61996;49.910;35.562;2022-12-29T13:56:31;99898.00;;;18.99;40.50
73692;BME280;61996;49.910;35.562;2022-12-29T13:59:40;99886.75;;;18.95;40.56
73692;BME280;61996;49.910;35.562;2022-12-29T14:03:00;99885.91;;;18.95;40.51
73692;BME280;61996;49.910;35.562;2022-12-29T14:06:12;99885.06;;;18.94;40.40
73692;BME280;61996;49.910;35.562;2022-12-29T14:09:33;99890.41;;;18.94;40.63
73692;BME280;61996;49.910;35.562;2022-12-29T14:12:37;99892.38;;;18.92;40.52
73692;BME280;61996;49.910;35.562;2022-12-29T14:15:42;99902.19;;;18.92;40.46
73692;BME280;61996;49.910;35.562;2022-12-29T14:18:47;99912.13;;;18.89;40.60
73692;BME280;61996;49.910;35.562;2022-12-29T14:21:50;99920.09;;;18.89;40.41
73692;BME280;61996;49.910;35.562;2022-12-29T14:24:54;99915.63;;;18.90;40.46
73692;BME280;61996;49.910;35.562;2022-12-29T14:27:57;99911.97;;;18.91;40.44
73692;BME280;61996;49.910;35.562;2022-12-29T14:31:00;99914.91;;;18.88;40.40
73692;BME280;61996;49.910;35.562;2022-12-29T14:50:34;99889.66;;;19.13;40.22
73692;BME280;61996;49.910;35.562;2022-12-29T14:53:44;99888.56;;;19.25;40.84
73692;BME280;61996;49.910;35.562;2022-12-29T14:56:47;99876.25;;;19.43;40.17
73692;BME280;61996;49.910;35.562;2022-12-29T14:59:52;99887.53;;;19.47;40.69
73692;BME280;61996;49.910;35.562;2022-12-29T15:03:01;99890.94;;;19.59;40.12
73692;BME280;61996;49.910;35.562;2022-12-29T15:06:07;99896.31;;;19.68;39.81
73692;BME280;61996;49.910;35.562;2022-12-29T15:09:15;99886.19;;;19.72;39.91
73692;BME280;61996;49.910;35.562;2022-12-29T15:12:23;99893.78;;;19.77;39.98
73692;BME280;61996;49.910;35.562;2022-12-29T15:15:35;99888.16;;;19.80;39.80
73692;BME280;61996;49.910;35.562;2022-12-29T15:18:39;99886.19;;;19.82;39.68
73692;BME280;61996;49.910;35.562;2022-12-29T15:21:45;99883.53;;;19.91;39.19
73692;BME280;61996;49.910;35.562;2022-12-29T15:24:49;99881.31;;;19.96;39.40
73692;BME280;61996;49.910;35.562;2022-12-29T15:27:54;99872.72;;;19.93;39.39
73692;BME280;61996;49.910;35.562;2022-12-29T15:31:01;99876.06;;;19.95;39.63
73692;BME280;61996;49.910;35.562;2022-12-29T15:34:09;99873.69;;;20.02;39.36
73692;BME280;61996;49.910;35.562;2022-12-29T15:37:21;99872.25;;;20.36;40.29
73692;BME280;61996;49.910;35.562;2022-12-29T15:40:25;99866.69;;;19.91;39.86
73692;BME280;61996;49.910;35.562;2022-12-29T15:43:37;99873.41;;;19.85;39.96
73692;BME280;61996;49.910;35.562;2022-12-29T15:46:47;99873.69;;;19.92;39.76
73692;BME280;61996;49.910;35.562;2022-12-29T15:49:52;99884.94;;;20.05;39.19
73692;BME280;61996;49.910;35.562;2022-12-29T15:52:58;99873.56;;;20.03;39.02
73692;BME280;61996;49.910;35.562;2022-12-29T15:56:05;99879.31;;;19.98;39.02
73692;BME280;61996;49.910;35.562;2022-12-29T15:59:18;99874.97;;;20.07;38.90
73692;BME280;61996;49.910;35.562;2022-12-29T16:15:55;99870.47;;;20.17;39.45
73692;BME280;61996;49.910;35.562;2022-12-29T16:18:59;99872.44;;;20.25;39.92
73692;BME280;61996;49.910;35.562;2022-12-29T16:22:09;99872.28;;;20.26;40.22
73692;BME280;61996;49.910;35.562;2022-12-29T16:25:14;99871.59;;;20.24;40.39
73692;BME280;61996;49.910;35.562;2022-12-29T16:28:19;99874.66;;;20.30;40.24
73692;BME280;61996;49.910;35.562;2022-12-29T16:31:24;99871.88;;;20.31;40.36
73692;BME280;61996;49.910;35.562;2022-12-29T16:34:29;99863.25;;;20.37;40.27
73692;BME280;61996;49.910;35.562;2022-12-29T16:37:33;99872.00;;;20.39;40.30
73692;BME280;61996;49.910;35.562;2022-12-29T16:40:37;99863.56;;;19.86;40.73
73692;BME280;61996;49.910;35.562;2022-12-29T16:43:42;99872.97;;;20.29;39.75
73692;BME280;61996;49.910;35.562;2022-12-29T16:46:57;99876.34;;;20.40;40.09
73692;BME280;61996;49.910;35.562;2022-12-29T16:50:09;99865.38;;;20.43;39.86
73692;BME280;61996;49.910;35.562;2022-12-29T16:53:18;99872.31;;;20.46;40.02
73692;BME280;61996;49.910;35.562;2022-12-29T16:56:23;99864.66;;;20.41;39.90